sensor_id;sensor_type;location;lat;lon;timestamp;P1;durP1;ratioP1;P2;durP2;ratioP2
60370;SDS011;48550;40.588;49.684;2024-02-26T00:02:17;3.53;;;1.85;;
60370;SDS011;48550;40.588;49.684;2024-02-26T00:04:43;6.75;;;2.30;;
60370;SDS011;48550;40.588;49.684;2024-02-26T00:07:09;4.88;;;2.08;;
60370;SDS011;48550;40.588;49.684;2024-02-26T00:09:35;5.22;;;2.45;;
60370;SDS011;48550;40.588;49.684;2024-02-26T00:12:02;5.68;;;2.45;;
60370;SDS011;48550;40.588;49.684;2024-02-26T00:14:32;3.75;;;1.90;;
60370;SDS011;48550;40.588;49.684;2024-02-26T00:16:58;4.32;;;2.00;;
60370;SDS011;48550;40.588;49.684;2024-02-26T00:19:23;3.25;;;2.00;;
60370;SDS011;48550;40.588;49.684;2024-02-26T00:21:49;4.63;;;2.00;;
60370;SDS011;48550;40.588;49.684;2024-02-26T00:24:15;3.63;;;2.05;;
60370;SDS011;48550;40.588;49.684;2024-02-26T00:26:41;6.03;;;2.00;;
60370;SDS011;48550;40.588;49.684;2024-02-26T00:29:06;6.30;;;1.95;;
60370;SDS011;48550;40.588;49.684;2024-02-26T00:31:32;2.92;;;1.67;;
60370;SDS011;48550;40.588;49.684;2024-02-26T00:33:58;4.60;;;1.92;;
60370;SDS011;48550;40.588;49.684;2024-02-26T00:36:24;7.07;;;2.20;;
60370;SDS011;48550;40.588;49.684;2024-02-26T00:38:50;5.30;;;1.73;;
60370;SDS011;48550;40.588;49.684;2024-02-26T00:41:18;5.38;;;2.10;;
60370;SDS011;48550;40.588;49.684;2024-02-26T00:43:44;4.32;;;2.10;;
60370;SDS011;48550;40.588;49.684;2024-02-26T00:46:10;3.17;;;1.70;;
60370;SDS011;48550;40.588;49.684;2024-02-26T00:48:35;5.32;;;2.03;;
60370;SDS011;48550;40.588;49.684;2024-02-26T00:51:02;3.95;;;1.70;;
60370;SDS011;48550;40.588;49.684;2024-02-26T00:53:30;3.88;;;1.65;;
60370;SDS011;48550;40.588;49.684;2024-02-26T00:55:56;4.07;;;2.15;;
60370;SDS011;48550;40.588;49.684;2024-02-26T00:58:24;3.22;;;1.90;;
60370;SDS011;48550;40.588;49.684;2024-02-26T01:00:50;3.03;;;1.83;;
60370;SDS011;48550;40.588;49.684;2024-02-26T01:03:17;6.05;;;2.13;;
60370;SDS011;48550;40.588;49.684;2024-02-26T01:05:43;5.18;;;1.90;;
60370;SDS011;48550;40.588;49.684;2024-02-26T01:08:09;4.15;;;2.00;;
60370;SDS011;48550;40.588;49.684;2024-02-26T01:10:35;7.03;;;2.42;;
60370;SDS011;48550;40.588;49.684;2024-02-26T01:13:00;5.88;;;2.30;;
60370;SDS011;48550;40.588;49.684;2024-02-26T01:15:27;5.80;;;2.00;;
60370;SDS011;48550;40.588;49.684;2024-02-26T01:17:53;4.05;;;2.15;;
60370;SDS011;48550;40.588;49.684;2024-02-26T01:20:19;4.68;;;2.08;;
60370;SDS011;48550;40.588;49.684;2024-02-26T01:22:46;5.82;;;2.10;;
60370;SDS011;48550;40.588;49.684;2024-02-26T01:25:12;5.18;;;1.80;;
60370;SDS011;48550;40.588;49.684;2024-02-26T01:27:38;3.92;;;2.00;;
60370;SDS011;48550;40.588;49.684;2024-02-26T01:30:04;5.57;;;2.00;;
60370;SDS011;48550;40.588;49.684;2024-02-26T01:32:30;4.53;;;2.45;;
60370;SDS011;48550;40.588;49.684;2024-02-26T01:34:56;4.95;;;1.98;;
60370;SDS011;48550;40.588;49.684;2024-02-26T01:37:22;5.53;;;2.00;;
60370;SDS011;48550;40.588;49.684;2024-02-26T01:39:48;2.75;;;1.73;;
60370;SDS011;48550;40.588;49.684;2024-02-26T01:42:13;3.28;;;1.58;;
60370;SDS011;48550;40.588;49.684;2024-02-26T01:44:39;4.35;;;1.85;;
60370;SDS011;48550;40.588;49.684;2024-02-26T01:47:05;4.55;;;1.83;;
60370;SDS011;48550;40.588;49.684;2024-02-26T01:49:34;3.42;;;1.83;;
60370;SDS011;48550;40.588;49.684;2024-02-26T01:52:00;4.72;;;2.25;;
60370;SDS011;48550;40.588;49.684;2024-02-26T01:54:28;5.60;;;2.00;;
60370;SDS011;48550;40.588;49.684;2024-02-26T01:56:55;4.57;;;2.00;;
60370;SDS011;48550;40.588;49.684;2024-02-26T01:59:21;6.68;;;2.00;;
60370;SDS011;48550;40.588;49.684;2024-02-26T02:01:48;6.57;;;2.20;;
60370;SDS011;48550;40.588;49.684;2024-02-26T02:04:19;5.07;;;2.08;;
60370;SDS011;48550;40.588;49.684;2024-02-26T02:06:46;7.60;;;1.83;;
60370;SDS011;48550;40.588;49.684;2024-02-26T02:09:12;4.38;;;1.70;;
60370;SDS011;48550;40.588;49.684;2024-02-26T02:11:38;3.78;;;2.03;;
60370;SDS011;48550;40.588;49.684;2024-02-26T02:14:04;4.97;;;2.10;;
60370;SDS011;48550;40.588;49.684;2024-02-26T02:16:30;4.80;;;1.90;;
60370;SDS011;48550;40.588;49.684;2024-02-26T02:18:55;4.00;;;1.70;;
60370;SDS011;48550;40.588;49.684;2024-02-26T02:21:21;7.75;;;2.70;;
60370;SDS011;48550;40.588;49.684;2024-02-26T02:23:47;5.35;;;2.13;;
60370;SDS011;48550;40.588;49.684;2024-02-26T02:26:14;6.05;;;2.13;;
60370;SDS011;48550;40.588;49.684;2024-02-26T02:28:40;5.95;;;2.25;;
60370;SDS011;48550;40.588;49.684;2024-02-26T02:31:07;5.05;;;2.53;;
60370;SDS011;48550;40.588;49.684;2024-02-26T02:33:33;6.20;;;2.10;;
60370;SDS011;48550;40.588;49.684;2024-02-26T02:36:00;8.68;;;2.55;;
60370;SDS011;48550;40.588;49.684;2024-02-26T02:38:26;5.13;;;1.90;;
60370;SDS011;48550;40.588;49.684;2024-02-26T02:40:52;5.13;;;2.28;;
60370;SDS011;48550;40.588;49.684;2024-02-26T02:43:18;5.30;;;2.15;;
60370;SDS011;48550;40.588;49.684;2024-02-26T02:45:43;4.20;;;2.40;;
60370;SDS011;48550;40.588;49.684;2024-02-26T02:48:10;4.90;;;2.03;;
60370;SDS011;48550;40.588;49.684;2024-02-26T02:50:36;3.95;;;1.90;;
60370;SDS011;48550;40.588;49.684;2024-02-26T02:53:02;3.90;;;2.15;;
60370;SDS011;48550;40.588;49.684;2024-02-26T02:55:28;5.65;;;2.55;;
60370;SDS011;48550;40.588;49.684;2024-02-26T02:57:54;5.22;;;2.40;;
60370;SDS011;48550;40.588;49.684;2024-02-26T03:00:20;4.88;;;2.22;;
60370;SDS011;48550;40.588;49.684;2024-02-26T03:02:48;7.80;;;2.17;;
60370;SDS011;48550;40.588;49.684;2024-02-26T03:05:14;5.05;;;2.00;;
60370;SDS011;48550;40.588;49.684;2024-02-26T03:07:40;4.93;;;2.17;;
60370;SDS011;48550;40.588;49.684;2024-02-26T03:10:06;4.65;;;2.47;;
60370;SDS011;48550;40.588;49.684;2024-02-26T03:12:33;4.28;;;2.00;;
60370;SDS011;48550;40.588;49.684;2024-02-26T03:14:59;11.07;;;2.28;;
60370;SDS011;48550;40.588;49.684;2024-02-26T03:17:30;5.15;;;2.17;;
60370;SDS011;48550;40.588;49.684;2024-02-26T03:19:56;5.88;;;2.30;;
60370;SDS011;48550;40.588;49.684;2024-02-26T03:22:22;6.10;;;2.38;;
60370;SDS011;48550;40.588;49.684;2024-02-26T03:24:48;8.07;;;2.45;;
60370;SDS011;48550;40.588;49.684;2024-02-26T03:27:14;2.55;;;1.77;;
60370;SDS011;48550;40.588;49.684;2024-02-26T03:29:40;4.90;;;2.08;;
60370;SDS011;48550;40.588;49.684;2024-02-26T03:32:06;4.95;;;2.20;;
60370;SDS011;48550;40.588;49.684;2024-02-26T03:34:32;3.90;;;2.10;;
60370;SDS011;48550;40.588;49.684;2024-02-26T03:36:59;5.55;;;2.20;;
60370;SDS011;48550;40.588;49.684;2024-02-26T03:39:26;5.00;;;2.00;;
60370;SDS011;48550;40.588;49.684;2024-02-26T03:41:52;5.13;;;2.30;;
60370;SDS011;48550;40.588;49.684;2024-02-26T03:44:17;4.20;;;2.30;;
60370;SDS011;48550;40.588;49.684;2024-02-26T03:46:43;10.40;;;2.70;;
60370;SDS011;48550;40.588;49.684;2024-02-26T03:49:09;6.97;;;1.90;;
60370;SDS011;48550;40.588;49.684;2024-02-26T03:51:35;6.07;;;2.42;;
60370;SDS011;48550;40.588;49.684;2024-02-26T03:54:01;5.53;;;2.05;;
60370;SDS011;48550;40.588;49.684;2024-02-26T03:56:27;8.85;;;2.40;;
60370;SDS011;48550;40.588;49.684;2024-02-26T03:58:53;4.60;;;2.17;;
60370;SDS011;48550;40.588;49.684;2024-02-26T04:01:18;4.80;;;2.38;;
60370;SDS011;48550;40.588;49.684;2024-02-26T04:03:44;6.35;;;2.40;;
60370;SDS011;48550;40.588;49.684;2024-02-26T04:06:10;6.00;;;2.13;;
60370;SDS011;48550;40.588;49.684;2024-02-26T04:08:39;3.53;;;1.90;;
60370;SDS011;48550;40.588;49.684;2024-02-26T04:11:05;4.68;;;2.10;;
60370;SDS011;48550;40.588;49.684;2024-02-26T04:13:33;8.82;;;3.50;;
60370;SDS011;48550;40.588;49.684;2024-02-26T04:16:00;6.95;;;3.58;;
60370;SDS011;48550;40.588;49.684;2024-02-26T04:18:27;6.53;;;2.80;;
60370;SDS011;48550;40.588;49.684;2024-02-26T04:20:53;12.38;;;3.22;;
60370;SDS011;48550;40.588;49.684;2024-02-26T04:23:19;9.48;;;3.80;;
60370;SDS011;48550;40.588;49.684;2024-02-26T04:25:45;11.68;;;3.90;;
60370;SDS011;48550;40.588;49.684;2024-02-26T04:28:11;6.40;;;3.13;;
60370;SDS011;48550;40.588;49.684;2024-02-26T04:30:37;8.05;;;3.40;;
60370;SDS011;48550;40.588;49.684;2024-02-26T04:33:03;9.38;;;2.80;;
60370;SDS011;48550;40.588;49.684;2024-02-26T04:35:29;14.15;;;4.10;;
60370;SDS011;48550;40.588;49.684;2024-02-26T04:37:55;4.18;;;2.38;;
60370;SDS011;48550;40.588;49.684;2024-02-26T04:40:21;4.97;;;2.20;;
60370;SDS011;48550;40.588;49.684;2024-02-26T04:42:46;7.22;;;2.97;;
60370;SDS011;48550;40.588;49.684;2024-02-26T04:45:12;7.45;;;2.95;;
60370;SDS011;48550;40.588;49.684;2024-02-26T04:47:38;5.43;;;2.28;;
60370;SDS011;48550;40.588;49.684;2024-02-26T04:50:04;7.95;;;3.05;;
60370;SDS011;48550;40.588;49.684;2024-02-26T04:52:30;10.85;;;2.67;;
60370;SDS011;48550;40.588;49.684;2024-02-26T04:54:56;4.63;;;2.25;;
60370;SDS011;48550;40.588;49.684;2024-02-26T04:57:22;6.32;;;2.70;;
60370;SDS011;48550;40.588;49.684;2024-02-26T04:59:47;3.92;;;2.33;;
60370;SDS011;48550;40.588;49.684;2024-02-26T05:02:13;5.05;;;2.40;;
60370;SDS011;48550;40.588;49.684;2024-02-26T05:04:39;6.93;;;2.95;;
60370;SDS011;48550;40.588;49.684;2024-02-26T05:07:05;6.70;;;2.70;;
60370;SDS011;48550;40.588;49.684;2024-02-26T05:09:31;8.70;;;2.95;;
60370;SDS011;48550;40.588;49.684;2024-02-26T05:11:57;7.38;;;2.95;;
60370;SDS011;48550;40.588;49.684;2024-02-26T05:14:23;9.32;;;3.40;;
60370;SDS011;48550;40.588;49.684;2024-02-26T05:16:48;6.93;;;2.55;;
60370;SDS011;48550;40.588;49.684;2024-02-26T05:19:14;6.63;;;2.80;;
60370;SDS011;48550;40.588;49.684;2024-02-26T05:21:40;4.53;;;2.60;;
60370;SDS011;48550;40.588;49.684;2024-02-26T05:24:07;5.63;;;2.35;;
60370;SDS011;48550;40.588;49.684;2024-02-26T05:26:33;8.32;;;2.67;;
60370;SDS011;48550;40.588;49.684;2024-02-26T05:28:59;4.97;;;2.50;;
60370;SDS011;48550;40.588;49.684;2024-02-26T05:31:25;5.15;;;2.80;;
60370;SDS011;48550;40.588;49.684;2024-02-26T05:33:51;5.30;;;2.70;;
60370;SDS011;48550;40.588;49.684;2024-02-26T05:36:18;8.52;;;2.70;;
60370;SDS011;48550;40.588;49.684;2024-02-26T05:38:45;7.22;;;2.92;;
60370;SDS011;48550;40.588;49.684;2024-02-26T05:41:11;6.68;;;3.30;;
60370;SDS011;48550;40.588;49.684;2024-02-26T05:43:37;9.30;;;4.30;;
60370;SDS011;48550;40.588;49.684;2024-02-26T05:46:03;6.50;;;3.20;;
60370;SDS011;48550;40.588;49.684;2024-02-26T05:48:28;11.55;;;2.88;;
60370;SDS011;48550;40.588;49.684;2024-02-26T05:50:54;7.93;;;3.60;;
60370;SDS011;48550;40.588;49.684;2024-02-26T05:53:22;10.10;;;3.13;;
60370;SDS011;48550;40.588;49.684;2024-02-26T05:55:47;4.90;;;2.40;;
60370;SDS011;48550;40.588;49.684;2024-02-26T05:58:13;10.85;;;3.53;;
60370;SDS011;48550;40.588;49.684;2024-02-26T06:00:39;9.13;;;3.65;;
60370;SDS011;48550;40.588;49.684;2024-02-26T06:03:05;7.30;;;3.30;;
60370;SDS011;48550;40.588;49.684;2024-02-26T06:05:31;11.05;;;3.17;;
60370;SDS011;48550;40.588;49.684;2024-02-26T06:07:56;6.78;;;3.17;;
60370;SDS011;48550;40.588;49.684;2024-02-26T06:10:22;7.63;;;3.85;;
60370;SDS011;48550;40.588;49.684;2024-02-26T06:12:48;7.45;;;3.25;;
60370;SDS011;48550;40.588;49.684;2024-02-26T06:15:13;7.63;;;3.45;;
60370;SDS011;48550;40.588;49.684;2024-02-26T06:17:39;5.30;;;3.17;;
60370;SDS011;48550;40.588;49.684;2024-02-26T06:20:05;6.05;;;2.95;;
60370;SDS011;48550;40.588;49.684;2024-02-26T06:22:31;6.85;;;2.95;;
60370;SDS011;48550;40.588;49.684;2024-02-26T06:24:57;7.53;;;3.25;;
60370;SDS011;48550;40.588;49.684;2024-02-26T06:27:23;8.27;;;3.55;;
60370;SDS011;48550;40.588;49.684;2024-02-26T06:29:49;8.52;;;3.20;;
60370;SDS011;48550;40.588;49.684;2024-02-26T06:32:15;7.72;;;3.58;;
60370;SDS011;48550;40.588;49.684;2024-02-26T06:34:41;5.80;;;2.75;;
60370;SDS011;48550;40.588;49.684;2024-02-26T06:37:07;6.82;;;3.10;;
60370;SDS011;48550;40.588;49.684;2024-02-26T06:39:33;8.43;;;3.85;;
60370;SDS011;48550;40.588;49.684;2024-02-26T06:41:59;7.97;;;3.83;;
60370;SDS011;48550;40.588;49.684;2024-02-26T06:44:27;7.20;;;3.50;;
60370;SDS011;48550;40.588;49.684;2024-02-26T06:46:57;6.97;;;2.88;;
60370;SDS011;48550;40.588;49.684;2024-02-26T06:49:24;9.45;;;3.10;;
60370;SDS011;48550;40.588;49.684;2024-02-26T06:51:50;6.80;;;2.85;;
60370;SDS011;48550;40.588;49.684;2024-02-26T06:54:16;11.73;;;3.17;;
60370;SDS011;48550;40.588;49.684;2024-02-26T06:56:42;6.30;;;3.67;;
60370;SDS011;48550;40.588;49.684;2024-02-26T06:59:07;11.43;;;3.67;;
60370;SDS011;48550;40.588;49.684;2024-02-26T07:01:33;5.78;;;3.10;;
60370;SDS011;48550;40.588;49.684;2024-02-26T07:03:59;6.32;;;3.33;;
60370;SDS011;48550;40.588;49.684;2024-02-26T07:06:26;7.28;;;2.90;;
60370;SDS011;48550;40.588;49.684;2024-02-26T07:08:52;7.90;;;3.95;;
60370;SDS011;48550;40.588;49.684;2024-02-26T07:11:18;6.43;;;3.60;;
60370;SDS011;48550;40.588;49.684;2024-02-26T07:13:47;6.55;;;3.08;;
60370;SDS011;48550;40.588;49.684;2024-02-26T07:16:14;8.10;;;3.35;;
60370;SDS011;48550;40.588;49.684;2024-02-26T07:18:40;8.52;;;3.10;;
60370;SDS011;48550;40.588;49.684;2024-02-26T07:21:06;6.70;;;3.30;;
60370;SDS011;48550;40.588;49.684;2024-02-26T07:23:33;5.65;;;3.30;;
60370;SDS011;48550;40.588;49.684;2024-02-26T07:25:59;7.28;;;3.65;;
60370;SDS011;48550;40.588;49.684;2024-02-26T07:28:26;8.55;;;3.15;;
60370;SDS011;48550;40.588;49.684;2024-02-26T07:30:51;7.75;;;3.05;;
60370;SDS011;48550;40.588;49.684;2024-02-26T07:33:17;7.90;;;3.85;;
60370;SDS011;48550;40.588;49.684;2024-02-26T07:35:43;9.18;;;4.22;;
60370;SDS011;48550;40.588;49.684;2024-02-26T07:38:09;6.40;;;2.80;;
60370;SDS011;48550;40.588;49.684;2024-02-26T07:40:34;8.90;;;3.35;;
60370;SDS011;48550;40.588;49.684;2024-02-26T07:43:01;8.07;;;2.70;;
60370;SDS011;48550;40.588;49.684;2024-02-26T07:45:27;7.50;;;3.05;;
60370;SDS011;48550;40.588;49.684;2024-02-26T07:47:52;7.28;;;3.20;;
60370;SDS011;48550;40.588;49.684;2024-02-26T07:50:18;4.80;;;2.53;;
60370;SDS011;48550;40.588;49.684;2024-02-26T07:52:44;4.95;;;2.63;;
60370;SDS011;48550;40.588;49.684;2024-02-26T07:55:10;5.63;;;2.72;;
60370;SDS011;48550;40.588;49.684;2024-02-26T07:57:36;8.10;;;3.08;;
60370;SDS011;48550;40.588;49.684;2024-02-26T08:00:02;9.23;;;3.03;;
60370;SDS011;48550;40.588;49.684;2024-02-26T08:02:29;6.55;;;2.45;;
60370;SDS011;48550;40.588;49.684;2024-02-26T08:04:54;5.88;;;2.60;;
60370;SDS011;48550;40.588;49.684;2024-02-26T08:07:20;3.45;;;2.00;;
60370;SDS011;48550;40.588;49.684;2024-02-26T08:09:46;9.25;;;2.88;;
60370;SDS011;48550;40.588;49.684;2024-02-26T08:12:12;8.52;;;2.72;;
60370;SDS011;48550;40.588;49.684;2024-02-26T08:14:38;8.32;;;2.42;;
60370;SDS011;48550;40.588;49.684;2024-02-26T08:17:05;5.35;;;2.38;;
60370;SDS011;48550;40.588;49.684;2024-02-26T08:19:31;7.05;;;2.42;;
60370;SDS011;48550;40.588;49.684;2024-02-26T08:21:56;5.57;;;2.85;;
60370;SDS011;48550;40.588;49.684;2024-02-26T08:24:22;5.13;;;2.47;;
60370;SDS011;48550;40.588;49.684;2024-02-26T08:26:48;7.70;;;2.80;;
60370;SDS011;48550;40.588;49.684;2024-02-26T08:29:14;12.60;;;3.05;;
60370;SDS011;48550;40.588;49.684;2024-02-26T08:31:40;10.73;;;3.00;;
60370;SDS011;48550;40.588;49.684;2024-02-26T08:34:06;6.80;;;2.58;;
60370;SDS011;48550;40.588;49.684;2024-02-26T08:36:34;6.38;;;2.85;;
60370;SDS011;48550;40.588;49.684;2024-02-26T08:39:00;7.82;;;3.08;;
60370;SDS011;48550;40.588;49.684;2024-02-26T08:41:26;5.13;;;2.58;;
60370;SDS011;48550;40.588;49.684;2024-02-26T08:43:51;6.00;;;2.40;;
60370;SDS011;48550;40.588;49.684;2024-02-26T08:46:17;5.63;;;2.33;;
60370;SDS011;48550;40.588;49.684;2024-02-26T08:48:43;5.65;;;2.53;;
60370;SDS011;48550;40.588;49.684;2024-02-26T08:51:09;8.60;;;3.22;;
60370;SDS011;48550;40.588;49.684;2024-02-26T08:53:38;5.95;;;2.55;;
60370;SDS011;48550;40.588;49.684;2024-02-26T08:56:04;5.55;;;2.45;;
60370;SDS011;48550;40.588;49.684;2024-02-26T08:58:30;5.10;;;2.40;;
60370;SDS011;48550;40.588;49.684;2024-02-26T09:00:56;4.72;;;2.30;;
60370;SDS011;48550;40.588;49.684;2024-02-26T09:03:22;6.35;;;2.60;;
60370;SDS011;48550;40.588;49.684;2024-02-26T09:05:48;5.78;;;2.28;;
60370;SDS011;48550;40.588;49.684;2024-02-26T09:08:14;7.07;;;2.58;;
60370;SDS011;48550;40.588;49.684;2024-02-26T09:10:40;7.20;;;2.13;;
60370;SDS011;48550;40.588;49.684;2024-02-26T09:13:06;6.10;;;2.60;;
60370;SDS011;48550;40.588;49.684;2024-02-26T09:15:31;4.75;;;2.08;;
60370;SDS011;48550;40.588;49.684;2024-02-26T09:17:57;7.93;;;3.13;;
60370;SDS011;48550;40.588;49.684;2024-02-26T09:20:23;6.82;;;2.25;;
60370;SDS011;48550;40.588;49.684;2024-02-26T09:22:49;6.45;;;1.88;;
60370;SDS011;48550;40.588;49.684;2024-02-26T09:25:16;4.72;;;2.30;;
60370;SDS011;48550;40.588;49.684;2024-02-26T09:27:44;8.07;;;2.50;;
60370;SDS011;48550;40.588;49.684;2024-02-26T09:30:12;6.20;;;2.50;;
60370;SDS011;48550;40.588;49.684;2024-02-26T09:32:38;5.60;;;2.58;;
60370;SDS011;48550;40.588;49.684;2024-02-26T09:35:05;10.40;;;2.30;;
60370;SDS011;48550;40.588;49.684;2024-02-26T09:37:31;4.72;;;2.25;;
60370;SDS011;48550;40.588;49.684;2024-02-26T09:39:58;4.03;;;2.45;;
60370;SDS011;48550;40.588;49.684;2024-02-26T09:42:27;8.90;;;2.30;;
60370;SDS011;48550;40.588;49.684;2024-02-26T09:44:54;7.22;;;2.38;;
60370;SDS011;48550;40.588;49.684;2024-02-26T09:47:21;4.00;;;2.00;;
60370;SDS011;48550;40.588;49.684;2024-02-26T09:49:49;5.28;;;2.40;;
60370;SDS011;48550;40.588;49.684;2024-02-26T09:52:15;5.03;;;2.42;;
60370;SDS011;48550;40.588;49.684;2024-02-26T09:54:42;5.75;;;2.00;;
60370;SDS011;48550;40.588;49.684;2024-02-26T09:57:12;6.03;;;2.78;;
60370;SDS011;48550;40.588;49.684;2024-02-26T09:59:41;9.73;;;2.60;;
60370;SDS011;48550;40.588;49.684;2024-02-26T10:02:17;6.88;;;2.45;;
60370;SDS011;48550;40.588;49.684;2024-02-26T10:04:45;5.50;;;2.47;;
60370;SDS011;48550;40.588;49.684;2024-02-26T10:07:13;8.60;;;2.70;;
60370;SDS011;48550;40.588;49.684;2024-02-26T10:09:39;8.95;;;2.53;;
60370;SDS011;48550;40.588;49.684;2024-02-26T10:12:06;6.05;;;2.50;;
60370;SDS011;48550;40.588;49.684;2024-02-26T10:14:35;6.32;;;2.53;;
60370;SDS011;48550;40.588;49.684;2024-02-26T10:17:01;6.18;;;2.92;;
60370;SDS011;48550;40.588;49.684;2024-02-26T10:19:27;7.82;;;3.13;;
60370;SDS011;48550;40.588;49.684;2024-02-26T10:21:58;7.97;;;2.58;;
60370;SDS011;48550;40.588;49.684;2024-02-26T10:24:28;6.40;;;2.92;;
60370;SDS011;48550;40.588;49.684;2024-02-26T10:26:55;9.38;;;3.17;;
60370;SDS011;48550;40.588;49.684;2024-02-26T10:29:23;5.70;;;2.55;;
60370;SDS011;48550;40.588;49.684;2024-02-26T10:31:50;6.88;;;3.03;;
60370;SDS011;48550;40.588;49.684;2024-02-26T10:34:17;7.00;;;2.70;;
60370;SDS011;48550;40.588;49.684;2024-02-26T10:36:43;8.05;;;2.58;;
60370;SDS011;48550;40.588;49.684;2024-02-26T10:39:09;7.57;;;2.58;;
60370;SDS011;48550;40.588;49.684;2024-02-26T10:41:39;3.83;;;1.92;;
60370;SDS011;48550;40.588;49.684;2024-02-26T10:44:06;6.45;;;2.80;;
60370;SDS011;48550;40.588;49.684;2024-02-26T10:46:36;9.20;;;3.13;;
60370;SDS011;48550;40.588;49.684;2024-02-26T10:49:02;8.50;;;3.42;;
60370;SDS011;48550;40.588;49.684;2024-02-26T10:51:28;10.73;;;3.17;;
60370;SDS011;48550;40.588;49.684;2024-02-26T10:53:56;10.75;;;3.15;;
60370;SDS011;48550;40.588;49.684;2024-02-26T10:56:24;6.88;;;2.58;;
60370;SDS011;48550;40.588;49.684;2024-02-26T10:58:52;5.30;;;2.50;;
60370;SDS011;48550;40.588;49.684;2024-02-26T11:01:20;8.77;;;3.22;;
60370;SDS011;48550;40.588;49.684;2024-02-26T11:03:51;5.57;;;2.97;;
60370;SDS011;48550;40.588;49.684;2024-02-26T11:06:18;7.32;;;2.70;;
60370;SDS011;48550;40.588;49.684;2024-02-26T11:08:52;4.68;;;2.55;;
60370;SDS011;48550;40.588;49.684;2024-02-26T11:11:19;6.68;;;2.72;;
60370;SDS011;48550;40.588;49.684;2024-02-26T11:13:46;6.13;;;2.45;;
60370;SDS011;48550;40.588;49.684;2024-02-26T11:16:20;8.60;;;2.63;;
60370;SDS011;48550;40.588;49.684;2024-02-26T11:18:47;7.65;;;2.80;;
60370;SDS011;48550;40.588;49.684;2024-02-26T11:21:16;9.88;;;2.83;;
60370;SDS011;48550;40.588;49.684;2024-02-26T11:23:52;6.78;;;2.83;;
60370;SDS011;48550;40.588;49.684;2024-02-26T11:26:20;5.95;;;2.50;;
60370;SDS011;48550;40.588;49.684;2024-02-26T11:28:48;9.73;;;3.10;;
60370;SDS011;48550;40.588;49.684;2024-02-26T11:31:16;4.40;;;2.60;;
60370;SDS011;48550;40.588;49.684;2024-02-26T11:33:43;6.95;;;2.47;;
60370;SDS011;48550;40.588;49.684;2024-02-26T11:36:09;5.60;;;2.85;;
60370;SDS011;48550;40.588;49.684;2024-02-26T11:38:36;8.02;;;2.45;;
60370;SDS011;48550;40.588;49.684;2024-02-26T11:41:03;5.75;;;3.05;;
60370;SDS011;48550;40.588;49.684;2024-02-26T11:46:27;6.38;;;2.30;;
60370;SDS011;48550;40.588;49.684;2024-02-26T11:48:58;5.57;;;2.55;;
60370;SDS011;48550;40.588;49.684;2024-02-26T11:51:33;7.90;;;2.90;;
60370;SDS011;48550;40.588;49.684;2024-02-26T11:54:00;7.15;;;2.90;;
60370;SDS011;48550;40.588;49.684;2024-02-26T11:56:26;8.13;;;2.78;;
60370;SDS011;48550;40.588;49.684;2024-02-26T11:59:03;5.07;;;2.58;;
60370;SDS011;48550;40.588;49.684;2024-02-26T12:04:07;8.30;;;3.33;;
60370;SDS011;48550;40.588;49.684;2024-02-26T12:06:46;10.93;;;2.85;;
60370;SDS011;48550;40.588;49.684;2024-02-26T12:09:30;5.07;;;2.50;;
60370;SDS011;48550;40.588;49.684;2024-02-26T12:12:03;8.85;;;2.80;;
60370;SDS011;48550;40.588;49.684;2024-02-26T12:14:40;7.30;;;2.47;;
60370;SDS011;48550;40.588;49.684;2024-02-26T12:17:19;8.85;;;2.97;;
60370;SDS011;48550;40.588;49.684;2024-02-26T12:19:47;6.07;;;2.95;;
60370;SDS011;48550;40.588;49.684;2024-02-26T12:22:13;10.13;;;2.83;;
60370;SDS011;48550;40.588;49.684;2024-02-26T12:24:39;6.03;;;2.78;;
60370;SDS011;48550;40.588;49.684;2024-02-26T12:27:05;9.02;;;3.45;;
60370;SDS011;48550;40.588;49.684;2024-02-26T12:29:31;6.40;;;2.72;;
60370;SDS011;48550;40.588;49.684;2024-02-26T12:31:57;6.70;;;2.70;;
60370;SDS011;48550;40.588;49.684;2024-02-26T12:34:23;6.93;;;2.97;;
60370;SDS011;48550;40.588;49.684;2024-02-26T12:36:49;7.38;;;3.10;;
60370;SDS011;48550;40.588;49.684;2024-02-26T12:39:15;7.50;;;3.13;;
60370;SDS011;48550;40.588;49.684;2024-02-26T12:41:40;7.07;;;3.28;;
60370;SDS011;48550;40.588;49.684;2024-02-26T12:44:07;5.90;;;2.97;;
60370;SDS011;48550;40.588;49.684;2024-02-26T12:46:33;8.45;;;2.78;;
60370;SDS011;48550;40.588;49.684;2024-02-26T12:48:59;7.65;;;3.08;;
60370;SDS011;48550;40.588;49.684;2024-02-26T12:51:27;6.32;;;3.08;;
60370;SDS011;48550;40.588;49.684;2024-02-26T12:53:55;10.73;;;3.30;;
60370;SDS011;48550;40.588;49.684;2024-02-26T12:56:21;7.38;;;3.17;;
60370;SDS011;48550;40.588;49.684;2024-02-26T12:58:48;6.72;;;2.85;;
60370;SDS011;48550;40.588;49.684;2024-02-26T13:01:17;7.93;;;2.55;;
60370;SDS011;48550;40.588;49.684;2024-02-26T13:03:46;9.18;;;3.35;;
60370;SDS011;48550;40.588;49.684;2024-02-26T13:06:12;6.70;;;2.33;;
60370;SDS011;48550;40.588;49.684;2024-02-26T13:08:39;12.02;;;2.88;;
60370;SDS011;48550;40.588;49.684;2024-02-26T13:11:05;8.93;;;3.60;;
60370;SDS011;48550;40.588;49.684;2024-02-26T13:13:31;6.63;;;2.60;;
60370;SDS011;48550;40.588;49.684;2024-02-26T13:18:30;12.82;;;2.92;;
60370;SDS011;48550;40.588;49.684;2024-02-26T13:21:14;9.40;;;3.75;;
60370;SDS011;48550;40.588;49.684;2024-02-26T13:23:41;7.93;;;3.25;;
60370;SDS011;48550;40.588;49.684;2024-02-26T13:26:08;7.10;;;3.28;;
60370;SDS011;48550;40.588;49.684;2024-02-26T13:28:37;9.73;;;3.45;;
60370;SDS011;48550;40.588;49.684;2024-02-26T13:31:03;8.63;;;3.63;;
60370;SDS011;48550;40.588;49.684;2024-02-26T13:33:30;10.40;;;3.80;;
60370;SDS011;48550;40.588;49.684;2024-02-26T13:35:57;7.88;;;3.10;;
60370;SDS011;48550;40.588;49.684;2024-02-26T13:38:24;9.07;;;3.17;;
60370;SDS011;48550;40.588;49.684;2024-02-26T13:40:50;14.45;;;3.75;;
60370;SDS011;48550;40.588;49.684;2024-02-26T13:43:17;9.88;;;3.33;;
60370;SDS011;48550;40.588;49.684;2024-02-26T13:45:43;7.43;;;3.50;;
60370;SDS011;48550;40.588;49.684;2024-02-26T13:48:10;5.28;;;2.83;;
60370;SDS011;48550;40.588;49.684;2024-02-26T13:50:36;5.72;;;2.85;;
60370;SDS011;48550;40.588;49.684;2024-02-26T13:53:03;6.47;;;2.90;;
60370;SDS011;48550;40.588;49.684;2024-02-26T13:55:29;10.35;;;3.17;;
60370;SDS011;48550;40.588;49.684;2024-02-26T13:57:57;10.88;;;3.22;;
60370;SDS011;48550;40.588;49.684;2024-02-26T14:00:24;10.75;;;3.38;;
60370;SDS011;48550;40.588;49.684;2024-02-26T14:02:50;9.48;;;3.78;;
60370;SDS011;48550;40.588;49.684;2024-02-26T14:05:16;10.18;;;3.47;;
60370;SDS011;48550;40.588;49.684;2024-02-26T14:07:43;6.30;;;2.65;;
60370;SDS011;48550;40.588;49.684;2024-02-26T14:10:09;8.85;;;3.63;;
60370;SDS011;48550;40.588;49.684;2024-02-26T14:12:37;9.13;;;3.58;;
60370;SDS011;48550;40.588;49.684;2024-02-26T14:15:04;7.38;;;3.38;;
60370;SDS011;48550;40.588;49.684;2024-02-26T14:17:32;6.70;;;3.33;;
60370;SDS011;48550;40.588;49.684;2024-02-26T14:19:58;5.20;;;2.78;;
60370;SDS011;48550;40.588;49.684;2024-02-26T14:22:24;6.95;;;2.97;;
60370;SDS011;48550;40.588;49.684;2024-02-26T14:24:52;6.40;;;3.10;;
60370;SDS011;48550;40.588;49.684;2024-02-26T14:27:18;5.53;;;2.88;;
60370;SDS011;48550;40.588;49.684;2024-02-26T14:29:47;6.85;;;3.17;;
60370;SDS011;48550;40.588;49.684;2024-02-26T14:32:13;10.32;;;3.42;;
60370;SDS011;48550;40.588;49.684;2024-02-26T14:34:39;12.10;;;3.47;;
60370;SDS011;48550;40.588;49.684;2024-02-26T14:37:04;15.27;;;4.20;;
60370;SDS011;48550;40.588;49.684;2024-02-26T14:39:31;6.13;;;3.17;;